createdAt,value
2017-04-06T00:02:06.246Z,13.45
2017-04-06T00:04:29.707Z,13.4
2017-04-06T00:06:53.278Z,13.36
2017-04-06T00:09:16.742Z,13.17
2017-04-06T00:11:40.215Z,13.3
2017-04-06T00:14:03.712Z,13.12
2017-04-06T00:16:27.158Z,13.19
2017-04-06T00:18:50.685Z,13.17
2017-04-06T00:21:14.201Z,13.16
2017-04-06T00:23:37.632Z,12.99
2017-04-06T00:26:01.037Z,12.86
2017-04-06T00:28:24.510Z,12.83
2017-04-06T00:30:47.881Z,12.7
2017-04-06T00:33:11.409Z,12.84
2017-04-06T00:35:34.809Z,12.88
2017-04-06T00:37:58.162Z,12.84
2017-04-06T00:40:21.625Z,12.32
2017-04-06T00:42:45.104Z,12.48
2017-04-06T00:45:08.551Z,12.55
2017-04-06T00:47:15.222Z,12.5
2017-04-06T00:49:38.695Z,12.57
2017-04-06T00:52:02.121Z,12.43
2017-04-06T00:54:25.438Z,12.47
2017-04-06T00:56:48.902Z,12.69
2017-04-06T00:59:12.256Z,12.44
2017-04-06T01:01:35.618Z,12.51
2017-04-06T01:03:59.008Z,12.45
2017-04-06T01:06:22.385Z,12.36
2017-04-06T01:08:45.779Z,12.48
2017-04-06T01:11:09.161Z,12.37
2017-04-06T01:13:32.539Z,12.26
2017-04-06T01:15:55.836Z,12.3
2017-04-06T01:18:19.202Z,12.43
2017-04-06T01:20:42.547Z,12.29
2017-04-06T01:23:06.011Z,12.39
2017-04-06T01:25:29.584Z,12.5
2017-04-06T01:27:52.854Z,12.25
2017-04-06T01:30:16.324Z,12.37
2017-04-06T01:32:39.574Z,12.26
2017-04-06T01:35:02.939Z,12.29
2017-04-06T01:37:26.304Z,12.53
2017-04-06T01:39:49.669Z,12.14
2017-04-06T01:42:13.136Z,12.3
2017-04-06T01:44:36.597Z,12.08
2017-04-06T01:46:59.875Z,12.28
2017-04-06T01:49:14.938Z,11.96
2017-04-06T01:51:38.402Z,11.93
2017-04-06T01:54:01.786Z,12
2017-04-06T01:56:25.114Z,12.18
2017-04-06T01:58:48.451Z,12.25
2017-04-06T02:01:11.855Z,12.14
2017-04-06T02:03:35.140Z,12.21
2017-04-06T02:05:58.667Z,11.89
2017-04-06T02:08:21.863Z,12.1
2017-04-06T02:10:45.342Z,11.99
2017-04-06T02:13:08.632Z,11.63
2017-04-06T02:15:31.895Z,11.88
2017-04-06T02:17:55.216Z,11.93
2017-04-06T02:20:18.588Z,11.86
2017-04-06T02:22:33.550Z,11.65
2017-04-06T02:24:56.926Z,11.71
2017-04-06T02:27:20.193Z,11.65
2017-04-06T02:29:43.642Z,11.88
2017-04-06T02:32:06.911Z,11.63
2017-04-06T02:34:30.283Z,11.67
2017-04-06T02:36:53.629Z,11.68
2017-04-06T02:39:17.450Z,11.55
2017-04-06T02:41:40.848Z,11.55
2017-04-06T02:43:55.765Z,11.65
2017-04-06T02:46:19.110Z,11.73
2017-04-06T02:48:42.565Z,11.7
2017-04-06T02:51:05.913Z,11.68
2017-04-06T02:53:29.220Z,11.59
2017-04-06T02:55:52.576Z,11.65
2017-04-06T02:58:16.003Z,11.62
2017-04-06T03:00:39.323Z,11.65
2017-04-06T03:03:02.740Z,11.77
2017-04-06T03:05:04.287Z,11.56
2017-04-06T03:07:27.684Z,11.67
2017-04-06T03:09:51.053Z,11.52
2017-04-06T03:12:14.411Z,11.4
2017-04-06T03:14:29.703Z,11.35
2017-04-06T03:16:52.831Z,11.58
2017-04-06T03:19:16.252Z,11.44
2017-04-06T03:21:39.421Z,11.41
2017-04-06T03:24:02.842Z,11.45
2017-04-06T03:26:26.336Z,11.34
2017-04-06T03:28:50.060Z,11.04
2017-04-06T03:31:13.206Z,11.1
2017-04-06T03:33:36.570Z,10.83
2017-04-06T03:35:59.940Z,10.8
2017-04-06T03:38:23.469Z,10.51
2017-04-06T03:40:47.112Z,10.79
2017-04-06T03:43:10.541Z,10.76
2017-04-06T03:45:33.886Z,10.89
2017-04-06T03:47:58.246Z,10.75
2017-04-06T03:50:21.848Z,10.82
2017-04-06T03:52:45.165Z,10.82
2017-04-06T03:55:08.865Z,10.69
2017-04-06T03:57:32.024Z,10.79
2017-04-06T03:59:55.545Z,10.72
2017-04-06T04:02:18.833Z,10.87
2017-04-06T04:04:42.559Z,10.82
2017-04-06T04:07:06.342Z,10.92
2017-04-06T04:09:29.820Z,10.59
2017-04-06T04:12:07.926Z,10.71
2017-04-06T04:14:31.793Z,10.69
2017-04-06T04:16:56.396Z,10.75
2017-04-06T04:19:20.695Z,10.34
2017-04-06T04:21:36.361Z,10.43
2017-04-06T04:23:59.700Z,10.21
2017-04-06T04:26:22.937Z,10.25
2017-04-06T04:28:47.356Z,10.31
2017-04-06T04:30:58.030Z,9.99
2017-04-06T04:33:21.365Z,10.13
2017-04-06T04:35:45.975Z,10.07
2017-04-06T04:38:09.626Z,10.18
2017-04-06T04:40:33.619Z,10.18
2017-04-06T04:42:57.072Z,10.36
2017-04-06T04:45:20.530Z,10.46
2017-04-06T04:47:44.110Z,10.48
2017-04-06T04:50:07.777Z,10.48
2017-04-06T04:52:31.309Z,10.38
2017-04-06T04:54:54.660Z,10.46
2017-04-06T04:57:18.053Z,10.58
2017-04-06T04:59:43.343Z,10.57
2017-04-06T05:02:05.758Z,10.83
2017-04-06T05:04:29.199Z,10.57
2017-04-06T05:06:53.554Z,10.69
2017-04-06T05:09:17.374Z,10.68
2017-04-06T05:11:48.520Z,10.87
2017-04-06T05:14:11.738Z,10.9
2017-04-06T05:16:35.436Z,10.87
2017-04-06T05:18:58.812Z,11.38
2017-04-06T05:21:22.317Z,11.96
2017-04-06T05:23:45.674Z,13.37
2017-04-06T05:26:09.025Z,14.4
2017-04-06T05:28:32.626Z,15.44
2017-04-06T05:30:55.959Z,16.41
2017-04-06T05:33:19.429Z,17.3
2017-04-06T05:35:43.241Z,17.52
2017-04-06T05:38:06.758Z,18.34
2017-04-06T05:40:07.997Z,19.15
2017-04-06T05:42:31.797Z,19.19
2017-04-06T05:44:55.657Z,18.61
2017-04-06T05:47:19.380Z,17.73
2017-04-06T05:49:43.154Z,19.07
2017-04-06T05:52:07.078Z,20.1
2017-04-06T05:54:30.945Z,21.5
2017-04-06T05:56:06.687Z,22.52
2017-04-06T05:58:30.785Z,24.1
2017-04-06T06:00:54.867Z,25.12
2017-04-06T06:03:19.155Z,26.39
2017-04-06T06:05:43.446Z,26.71
2017-04-06T06:07:59.430Z,27.86
2017-04-06T06:10:23.913Z,28.28
2017-04-06T06:12:48.517Z,29.57
2017-04-06T06:15:13.217Z,30.93
2017-04-06T06:17:38.023Z,31.11
2017-04-06T06:20:02.812Z,32.04
2017-04-06T06:22:27.712Z,32.11
2017-04-06T06:24:52.620Z,32.68
2017-04-06T06:27:17.693Z,33.91
2017-04-06T06:29:42.656Z,34.97
2017-04-06T06:32:07.697Z,33.13
2017-04-06T06:34:32.940Z,34.28
2017-04-06T06:36:57.939Z,34.37
2017-04-06T06:39:22.970Z,34.44
2017-04-06T06:41:47.865Z,30.76
2017-04-06T06:44:12.857Z,26.97
2017-04-06T06:46:37.683Z,26.29
2017-04-06T06:49:02.361Z,26.11
2017-04-06T06:51:27.049Z,26.46
2017-04-06T06:53:43.249Z,28.72
2017-04-06T06:56:07.939Z,30.24
2017-04-06T06:58:32.557Z,32.64
2017-04-06T07:01:12.142Z,34.11
2017-04-06T07:03:37.634Z,34.78
2017-04-06T07:06:09.026Z,36.87
2017-04-06T07:29:15.831Z,41.63
2017-04-06T07:31:51.629Z,38.98
2017-04-06T07:34:18.733Z,41.57
2017-04-06T07:36:47.157Z,43.94
2017-04-06T07:39:13.108Z,45.73
2017-04-06T07:41:40.638Z,39.56
2017-04-06T07:44:08.742Z,41.22
2017-04-06T07:54:18.130Z,24.59
2017-04-06T07:56:03.580Z,23.32
2017-04-06T08:02:59.308Z,20.48
2017-04-06T08:08:45.785Z,18.34
2017-04-06T08:11:07.753Z,18.06
2017-04-06T08:13:32.108Z,17.6
2017-04-06T08:16:01.499Z,17.82
2017-04-06T08:18:28.472Z,18.21
2017-04-06T08:21:00.114Z,19.82
2017-04-06T08:23:25.617Z,19.75
2017-04-06T08:25:52.361Z,18.43
2017-04-06T08:28:16.723Z,17.65
2017-04-06T08:30:41.764Z,16.54
2017-04-06T08:33:05.934Z,16.28
2017-04-06T08:35:29.759Z,15.85
2017-04-06T08:37:54.786Z,16.47
2017-04-06T08:40:20.200Z,15.66
2017-04-06T08:42:44.899Z,15.48
2017-04-06T08:45:09.667Z,14.43
2017-04-06T08:47:33.203Z,14.33
2017-04-06T08:49:59.946Z,14.67
2017-04-06T08:52:23.741Z,14.7
2017-04-06T08:54:50.278Z,15.47
2017-04-06T08:57:18.384Z,15.26
2017-04-06T09:13:12.874Z,15.83
2017-04-06T09:19:34.437Z,15.73
2017-04-06T09:25:39.936Z,15.87
2017-04-06T09:30:37.645Z,15.08
2017-04-06T09:33:03.796Z,15.57
2017-04-06T09:35:27.904Z,15.52
2017-04-06T09:37:52.025Z,15.59
2017-04-06T09:40:16.710Z,15.96
2017-04-06T09:42:42.371Z,15.81
2017-04-06T09:45:07.133Z,16.17
2017-04-06T09:47:30.595Z,15.94
2017-04-06T09:49:54.529Z,15.17
2017-04-06T09:52:20.546Z,15.17
2017-04-06T09:54:45.416Z,15.67
2017-04-06T09:57:11.360Z,15.45
2017-04-06T10:03:12.539Z,15.45
2017-04-06T10:05:42.754Z,15.98
2017-04-06T10:08:08.462Z,16.12
2017-04-06T10:10:37.969Z,15.85
2017-04-06T10:12:56.421Z,15.76
2017-04-06T10:15:20.394Z,15.51
2017-04-06T10:17:44.164Z,14.97
2017-04-06T10:20:08.003Z,15.55
2017-04-06T10:21:46.193Z,15.5
2017-04-06T10:24:09.862Z,15.43
2017-04-06T10:26:37.377Z,14.96
2017-04-06T10:29:08.017Z,15.32
2017-04-06T10:31:41.052Z,15.62
2017-04-06T10:34:09.237Z,15.88
2017-04-06T10:36:32.835Z,15.26
2017-04-06T10:43:39.313Z,15.98
2017-04-06T10:47:39.883Z,16.24
2017-04-06T10:51:20.606Z,16.54
2017-04-06T10:53:23.209Z,16.43
2017-04-06T10:55:49.424Z,16.47
2017-04-06T11:00:07.107Z,17.01
2017-04-06T11:02:35.863Z,17.2
2017-04-06T11:05:02.558Z,17.6
2017-04-06T11:09:19.673Z,18.15
2017-04-06T11:11:45.569Z,18.58
2017-04-06T11:14:16.030Z,19.07
2017-04-06T11:16:39.839Z,18.49
2017-04-06T11:19:03.863Z,18.6
2017-04-06T11:21:27.985Z,18.55
2017-04-06T11:23:52.432Z,19
2017-04-06T11:26:16.462Z,19.44
2017-04-06T11:28:42.919Z,19.79
2017-04-06T11:31:07.319Z,19.72
2017-04-06T11:33:24.636Z,19.19
2017-04-06T11:35:48.781Z,19.72
2017-04-06T11:38:04.433Z,18.83
2017-04-06T11:40:28.452Z,18.89
2017-04-06T11:42:52.899Z,19.63
2017-04-06T11:45:18.844Z,19.32
2017-04-06T11:47:43.953Z,19.23
2017-04-06T11:50:10.079Z,18.91
2017-04-06T11:52:34.589Z,19.12
2017-04-06T11:54:59.555Z,19.2
2017-04-06T11:57:16.682Z,19.08
2017-04-06T11:59:41.582Z,18.83
2017-04-06T12:02:06.157Z,18.31
2017-04-06T12:04:45.236Z,18.91
2017-04-06T12:07:11.014Z,17.65
2017-04-06T12:09:34.835Z,17.42
2017-04-06T12:11:58.668Z,18.11
2017-04-06T12:14:22.429Z,18.39
2017-04-06T12:16:46.630Z,18.64
2017-04-06T12:19:13.601Z,19.16
2017-04-06T12:21:36.856Z,17.91
2017-04-06T12:24:00.643Z,17.72
2017-04-06T12:26:24.446Z,17.95
2017-04-06T12:28:48.249Z,18.24
2017-04-06T12:31:12.068Z,17.19
2017-04-06T12:33:35.809Z,18.26
2017-04-06T12:36:04.461Z,18.88
2017-04-06T12:38:28.188Z,18.51
2017-04-06T12:40:52.048Z,18
2017-04-06T12:43:15.866Z,17.95
2017-04-06T12:45:15.843Z,16.84
2017-04-06T12:47:39.935Z,17.86
2017-04-06T12:50:03.739Z,18.48
2017-04-06T12:52:27.451Z,17.35
2017-04-06T12:54:52.989Z,18.42
2017-04-06T12:57:16.792Z,17.91
2017-04-06T12:59:40.611Z,17.32
2017-04-06T13:02:04.494Z,17.47
2017-04-06T13:04:28.278Z,18
2017-04-06T13:06:53.276Z,18.37
2017-04-06T13:09:19.889Z,18.66
2017-04-06T13:11:45.284Z,19.11
2017-04-06T13:14:13.327Z,19.55
2017-04-06T13:19:16.242Z,18.82
2017-04-06T13:24:20.267Z,18.23
2017-04-06T13:26:45.126Z,18.41
2017-04-06T13:29:08.998Z,19.52
2017-04-06T13:31:32.852Z,18.57
2017-04-06T13:33:56.702Z,18.42
2017-04-06T13:36:20.577Z,18.34
2017-04-06T13:38:44.425Z,18.02
2017-04-06T13:41:09.242Z,18.03
2017-04-06T13:43:39.788Z,17.88
2017-04-06T13:46:04.715Z,18.05
2017-04-06T13:48:30.640Z,18.19
2017-04-06T13:50:54.518Z,18.37
2017-04-06T13:53:19.301Z,18.82
2017-04-06T13:55:43.166Z,18.36
2017-04-06T13:58:07.086Z,18.49
2017-04-06T14:02:07.120Z,18
2017-04-06T14:04:33.054Z,17.93
2017-04-06T14:06:48.550Z,17.46
2017-04-06T14:09:12.282Z,17.37
2017-04-06T14:11:37.017Z,18
2017-04-06T14:14:00.820Z,17.88
2017-04-06T14:16:25.687Z,17.04
2017-04-06T14:18:51.587Z,17.31
2017-04-06T14:21:22.136Z,17.17
2017-04-06T14:23:46.009Z,17.53
2017-04-06T14:26:09.809Z,17.91
2017-04-06T14:28:40.155Z,17.42
2017-04-06T14:31:03.949Z,17.87
2017-04-06T14:33:27.714Z,18.15
2017-04-06T14:35:52.578Z,18.42
2017-04-06T14:38:17.369Z,18.31
2017-04-06T14:40:41.924Z,17.9
2017-04-06T14:43:05.713Z,18.05
2017-04-06T14:45:29.365Z,18.53
2017-04-06T14:47:53.140Z,18.7
2017-04-06T14:50:16.876Z,18.52
2017-04-06T14:52:40.614Z,18.26
2017-04-06T14:55:04.274Z,17.91
2017-04-06T14:57:27.990Z,17.86
2017-04-06T14:59:51.728Z,18.08
2017-04-06T15:02:15.510Z,17.93
2017-04-06T15:04:39.237Z,18.08
2017-04-06T15:07:02.928Z,18.27
2017-04-06T15:09:26.644Z,17.91
2017-04-06T15:11:50.331Z,18.05
2017-04-06T15:13:26.569Z,17.88
2017-04-06T15:15:11.273Z,17.44
2017-04-06T15:17:35.141Z,17.38
2017-04-06T15:19:59.034Z,17.49
2017-04-06T15:22:22.887Z,17.2
2017-04-06T15:24:47.692Z,17.35
2017-04-06T15:27:11.582Z,17.22
2017-04-06T15:29:35.344Z,16.99
2017-04-06T15:31:45.720Z,17.35
2017-04-06T15:34:01.068Z,17.3
2017-04-06T15:36:12.066Z,17.17
2017-04-06T15:38:20.985Z,16.94
2017-04-06T15:40:44.765Z,16.51
2017-04-06T15:43:00.031Z,16.76
2017-04-06T15:45:24.855Z,16.97
2017-04-06T15:47:48.604Z,17.24
2017-04-06T15:50:12.377Z,16.97
2017-04-06T15:52:38.322Z,17.01
2017-04-06T15:55:16.812Z,16.59
2017-04-06T15:57:40.658Z,16.65
2017-04-06T16:00:04.503Z,16.32
2017-04-06T16:02:29.505Z,16.25
2017-04-06T16:04:53.923Z,16.46
2017-04-06T16:07:17.079Z,16.61
2017-04-06T16:09:41.958Z,16.49
2017-04-06T16:12:05.968Z,16.66
2017-04-06T16:14:30.045Z,16.57
2017-04-06T16:16:54.914Z,16.74
2017-04-06T16:19:18.793Z,16.65
2017-04-06T16:21:42.633Z,16.49
2017-04-06T16:24:09.499Z,16.76
2017-04-06T16:26:35.106Z,16.97
2017-04-06T16:29:01.494Z,16.72
2017-04-06T16:31:27.019Z,16.59
2017-04-06T16:33:50.988Z,16.24
2017-04-06T16:36:14.852Z,16.5
2017-04-06T16:37:52.426Z,16.58
2017-04-06T16:40:33.758Z,16.24
2017-04-06T16:42:57.298Z,16.09
2017-04-06T16:45:21.320Z,15.92
2017-04-06T16:47:44.981Z,16.21
2017-04-06T16:50:08.781Z,16.28
2017-04-06T16:52:32.954Z,16.5
2017-04-06T16:54:56.527Z,16.31
2017-04-06T16:57:20.543Z,16.1
2017-04-06T16:59:45.401Z,16.29
2017-04-06T17:02:10.520Z,15.94
2017-04-06T17:04:34.342Z,15.88
2017-04-06T17:06:46.114Z,16.03
2017-04-06T17:09:01.508Z,15.63
2017-04-06T17:11:25.184Z,15.72
2017-04-06T17:13:48.870Z,15.29
2017-04-06T17:16:12.500Z,15.33
2017-04-06T17:18:36.131Z,15.45
2017-04-06T17:20:59.933Z,15.62
2017-04-06T17:23:23.536Z,15.39
2017-04-06T17:25:47.098Z,15.59
2017-04-06T17:28:10.962Z,15.36
2017-04-06T17:29:46.678Z,15.35
2017-04-06T17:32:10.391Z,15.19
2017-04-06T17:34:34.058Z,15.18
2017-04-06T17:36:57.732Z,15.52
2017-04-06T17:39:21.627Z,15.45
2017-04-06T17:41:53.117Z,15.48
2017-04-06T17:44:16.634Z,15.72
2017-04-06T17:46:41.347Z,15.6
2017-04-06T17:49:05.099Z,15.54
2017-04-06T17:51:29.830Z,15.59
2017-04-06T17:53:57.664Z,15.15
2017-04-06T17:56:21.374Z,15.29
2017-04-06T17:58:44.840Z,15.07
2017-04-06T18:00:57.799Z,15.08
2017-04-06T18:03:21.397Z,14.7
2017-04-06T18:05:45.011Z,14.73
2017-04-06T18:08:08.553Z,14.73
2017-04-06T18:10:32.102Z,14.73
2017-04-06T18:12:55.720Z,14.26
2017-04-06T18:15:20.280Z,14.28
2017-04-06T18:17:43.873Z,14.28
2017-04-06T18:20:07.335Z,14.34
2017-04-06T18:22:30.955Z,14.31
2017-04-06T18:24:54.627Z,14.34
2017-04-06T18:27:18.249Z,14.44
2017-04-06T18:29:41.710Z,14.44
2017-04-06T18:32:05.183Z,14.33
2017-04-06T18:34:28.654Z,14.49
2017-04-06T18:36:53.863Z,14.44
2017-04-06T18:39:18.386Z,14.45
2017-04-06T18:41:41.898Z,14.28
2017-04-06T18:44:05.465Z,14.38
2017-04-06T18:46:28.950Z,14.43
2017-04-06T18:48:56.806Z,14.43
2017-04-06T18:51:19.759Z,14.45
2017-04-06T18:53:34.930Z,14.53
2017-04-06T18:55:58.511Z,14.59
2017-04-06T18:58:22.115Z,14.43
2017-04-06T19:00:45.547Z,14.44
2017-04-06T19:03:09.138Z,14.48
2017-04-06T19:05:32.574Z,14.33
2017-04-06T19:07:56.155Z,14.41
2017-04-06T19:10:19.796Z,14.41
2017-04-06T19:12:43.184Z,14.48
2017-04-06T19:15:06.759Z,14.43
2017-04-06T19:17:30.366Z,14.34
2017-04-06T19:19:31.582Z,14.25
2017-04-06T19:21:46.749Z,14.4
2017-04-06T19:24:10.311Z,14.37
2017-04-06T19:26:17.107Z,14.34
2017-04-06T19:28:40.551Z,14.15
2017-04-06T19:30:55.642Z,14.07
2017-04-06T19:33:19.093Z,13.82
2017-04-06T19:35:42.667Z,13.78
2017-04-06T19:38:06.135Z,13.85
2017-04-06T19:40:29.604Z,13.94
2017-04-06T19:42:53.075Z,13.75
2017-04-06T19:45:16.749Z,13.71
2017-04-06T19:47:40.324Z,13.75
2017-04-06T19:50:03.904Z,13.75
2017-04-06T19:52:27.439Z,13.7
2017-04-06T19:54:51.954Z,13.73
2017-04-06T19:57:15.404Z,13.73
2017-04-06T19:59:38.872Z,13.75
2017-04-06T20:02:02.400Z,13.7
2017-04-06T20:04:03.494Z,13.67
2017-04-06T20:06:26.952Z,13.57
2017-04-06T20:08:50.419Z,13.31
2017-04-06T20:11:13.883Z,13.4
2017-04-06T20:13:28.983Z,13.23
2017-04-06T20:15:52.437Z,13.01
2017-04-06T20:18:07.496Z,12.83
2017-04-06T20:20:30.962Z,12.73
2017-04-06T20:22:54.430Z,12.7
2017-04-06T20:25:17.790Z,12.7
2017-04-06T20:27:41.260Z,12.54
2017-04-06T20:30:04.727Z,12.54
2017-04-06T20:32:28.096Z,12.69
2017-04-06T20:34:51.567Z,12.83
2017-04-06T20:37:15.030Z,12.75
2017-04-06T20:39:30.100Z,12.7
2017-04-06T20:41:53.576Z,12.63
2017-04-06T20:44:16.932Z,12.57
2017-04-06T20:46:27.013Z,12.53
2017-04-06T20:48:50.464Z,12.54
2017-04-06T20:51:13.825Z,12.58
2017-04-06T20:53:37.189Z,12.54
2017-04-06T20:56:00.648Z,12.69
2017-04-06T20:58:24.117Z,12.5
2017-04-06T21:00:25.782Z,12.54
2017-04-06T21:02:35.900Z,12.51
2017-04-06T21:04:59.397Z,12.44
2017-04-06T21:07:22.874Z,12.5
2017-04-06T21:09:37.835Z,12.43
2017-04-06T21:12:01.299Z,12.39
2017-04-06T21:14:24.665Z,12.5
2017-04-06T21:16:48.131Z,12.4
2017-04-06T21:18:49.297Z,12.43
2017-04-06T21:21:04.356Z,12.21
2017-04-06T21:23:27.707Z,12.28
2017-04-06T21:25:51.079Z,12.33
2017-04-06T21:28:14.443Z,12.21
2017-04-06T21:30:29.419Z,11.95
2017-04-06T21:32:52.771Z,11.85
2017-04-06T21:35:16.195Z,11.85
2017-04-06T21:37:39.518Z,11.95
2017-04-06T21:40:02.877Z,12.03
2017-04-06T21:42:26.255Z,12.18
2017-04-06T21:44:49.643Z,12.23
2017-04-06T21:47:13.017Z,12.05
2017-04-06T21:49:36.329Z,11.95
2017-04-06T21:51:59.695Z,11.89
2017-04-06T21:54:23.059Z,11.85
2017-04-06T21:56:38.039Z,11.76
2017-04-06T21:58:52.996Z,11.89
2017-04-06T22:01:16.362Z,11.77
2017-04-06T22:03:18.011Z,11.78
2017-04-06T22:05:41.482Z,11.63
2017-04-06T22:08:04.953Z,11.85
2017-04-06T22:10:28.234Z,11.93
2017-04-06T22:12:51.662Z,12.03
2017-04-06T22:15:15.218Z,12.03
2017-04-06T22:17:38.628Z,11.96
2017-04-06T22:20:02.224Z,11.85
2017-04-06T22:22:25.672Z,11.78
2017-04-06T22:24:56.383Z,12.11
2017-04-06T22:27:20.645Z,12.08
2017-04-06T22:29:13.182Z,12.23
2017-04-06T22:31:35.350Z,12.23
2017-04-06T22:34:01.309Z,12.21
2017-04-06T22:35:46.420Z,12.05
2017-04-06T22:39:53.315Z,11.8
2017-04-06T22:42:19.802Z,11.85
2017-04-06T22:44:43.211Z,11.89
2017-04-06T22:47:07.568Z,12.08
2017-04-06T22:49:31.003Z,11.93
2017-04-06T22:51:54.371Z,11.91
2017-04-06T22:54:27.165Z,12.17
2017-04-06T22:56:50.522Z,12.14
2017-04-06T22:59:13.889Z,12.23
2017-04-06T23:01:37.252Z,12.28
2017-04-06T23:04:00.793Z,12.21
2017-04-06T23:06:24.085Z,12.29
2017-04-06T23:08:26.693Z,12.29
2017-04-06T23:12:28.860Z,12.33
2017-04-06T23:14:52.945Z,12.44
2017-04-06T23:17:16.318Z,12.26
2017-04-06T23:19:39.733Z,12.12
2017-04-06T23:22:03.034Z,12.17
2017-04-06T23:24:27.452Z,12.21
2017-04-06T23:26:50.786Z,12.05
2017-04-06T23:29:14.152Z,12.08
2017-04-06T23:31:37.510Z,11.83
2017-04-06T23:34:00.996Z,11.58
2017-04-06T23:36:24.372Z,11.63
2017-04-06T23:38:47.707Z,11.52
2017-04-06T23:40:58.649Z,11.67
2017-04-06T23:42:43.325Z,11.83
2017-04-06T23:45:09.283Z,11.93
2017-04-06T23:48:05.031Z,11.96
2017-04-06T23:52:30.052Z,11.93
2017-04-06T23:54:56.607Z,11.88
2017-04-06T23:57:20.109Z,11.86
